Terminal Aerodrome Forecast
Issued by NWS

Home | Current Version | Previous Version | Text Only | Print | Product List | Glossary On
Versions: 1 2 3 4 5 6 7 8 9 10 11 12 13 14 15 16 17 18 19
000
FTUS46 KSEW 192337
TAFBFI
TAF
KBFI 192337Z 2000/2024 16012G20KT P6SM -RA SCT025 OVC035
     FM200200 17016G26KT 4SM -RA BR SCT010 BKN018 OVC030
     FM200500 18011G18KT P6SM -SHRA SCT012 BKN025 OVC035
     FM201000 17007KT P6SM -SHRA SCT010 BKN018 OVC025
     FM201400 16003KT P6SM SCT009 BKN015 OVC025
     FM202000 03004KT P6SM SCT018 BKN030 BKN060=

USA.gov is the U.S. government's official web portal to all federal, state and local government web resources and services.